sensor_id;sensor_type;location;lat;lon;timestamp;P1;durP1;ratioP1;P2;durP2;ratioP2
18425;SDS011;9340;48.756;9.226;2023-07-22T00:00:47;5.40;;;5.00;;
18425;SDS011;9340;48.756;9.226;2023-07-22T00:03:14;7.33;;;4.83;;
18425;SDS011;9340;48.756;9.226;2023-07-22T00:05:41;5.17;;;4.67;;
18425;SDS011;9340;48.756;9.226;2023-07-22T00:08:08;4.80;;;4.30;;
18425;SDS011;9340;48.756;9.226;2023-07-22T00:10:35;5.33;;;4.93;;
18425;SDS011;9340;48.756;9.226;2023-07-22T00:13:06;4.73;;;4.33;;
18425;SDS011;9340;48.756;9.226;2023-07-22T00:15:33;5.90;;;5.00;;
18425;SDS011;9340;48.756;9.226;2023-07-22T00:18:01;4.87;;;4.47;;
18425;SDS011;9340;48.756;9.226;2023-07-22T00:20:28;4.43;;;4.03;;
18425;SDS011;9340;48.756;9.226;2023-07-22T00:22:55;4.90;;;4.50;;
18425;SDS011;9340;48.756;9.226;2023-07-22T00:25:21;4.60;;;4.13;;
18425;SDS011;9340;48.756;9.226;2023-07-22T00:27:48;4.57;;;4.17;;
18425;SDS011;9340;48.756;9.226;2023-07-22T00:30:15;4.70;;;3.90;;
18425;SDS011;9340;48.756;9.226;2023-07-22T00:32:42;5.13;;;4.70;;
18425;SDS011;9340;48.756;9.226;2023-07-22T00:35:10;4.53;;;4.07;;
18425;SDS011;9340;48.756;9.226;2023-07-22T00:37:37;4.40;;;4.00;;
18425;SDS011;9340;48.756;9.226;2023-07-22T00:40:04;4.63;;;4.23;;
18425;SDS011;9340;48.756;9.226;2023-07-22T00:42:36;4.83;;;4.40;;
18425;SDS011;9340;48.756;9.226;2023-07-22T00:45:03;4.20;;;3.80;;
18425;SDS011;9340;48.756;9.226;2023-07-22T00:47:31;4.67;;;3.83;;
18425;SDS011;9340;48.756;9.226;2023-07-22T00:49:59;5.77;;;4.13;;
18425;SDS011;9340;48.756;9.226;2023-07-22T00:52:29;4.20;;;3.90;;
18425;SDS011;9340;48.756;9.226;2023-07-22T00:54:55;4.30;;;3.87;;
18425;SDS011;9340;48.756;9.226;2023-07-22T00:57:22;4.70;;;4.30;;
18425;SDS011;9340;48.756;9.226;2023-07-22T00:59:49;5.40;;;4.93;;
18425;SDS011;9340;48.756;9.226;2023-07-22T01:02:16;4.90;;;4.37;;
18425;SDS011;9340;48.756;9.226;2023-07-22T01:04:43;4.60;;;4.20;;
18425;SDS011;9340;48.756;9.226;2023-07-22T01:07:10;5.30;;;4.63;;
18425;SDS011;9340;48.756;9.226;2023-07-22T01:09:40;4.00;;;3.60;;
18425;SDS011;9340;48.756;9.226;2023-07-22T01:12:08;3.93;;;3.63;;
18425;SDS011;9340;48.756;9.226;2023-07-22T01:14:35;4.43;;;4.03;;
18425;SDS011;9340;48.756;9.226;2023-07-22T01:17:04;5.00;;;4.50;;
18425;SDS011;9340;48.756;9.226;2023-07-22T01:19:32;4.70;;;4.30;;
18425;SDS011;9340;48.756;9.226;2023-07-22T01:22:00;5.20;;;4.07;;
18425;SDS011;9340;48.756;9.226;2023-07-22T01:24:29;4.40;;;4.00;;
18425;SDS011;9340;48.756;9.226;2023-07-22T01:26:56;4.20;;;3.70;;
18425;SDS011;9340;48.756;9.226;2023-07-22T01:29:23;4.57;;;4.20;;
18425;SDS011;9340;48.756;9.226;2023-07-22T01:31:51;4.50;;;4.10;;
18425;SDS011;9340;48.756;9.226;2023-07-22T01:34:18;4.90;;;4.50;;
18425;SDS011;9340;48.756;9.226;2023-07-22T01:36:46;4.10;;;3.70;;
18425;SDS011;9340;48.756;9.226;2023-07-22T01:39:13;4.00;;;3.70;;
18425;SDS011;9340;48.756;9.226;2023-07-22T01:41:41;4.40;;;3.67;;
18425;SDS011;9340;48.756;9.226;2023-07-22T01:44:08;5.07;;;4.67;;
18425;SDS011;9340;48.756;9.226;2023-07-22T01:46:35;3.97;;;3.67;;
18425;SDS011;9340;48.756;9.226;2023-07-22T01:49:04;4.93;;;4.53;;
18425;SDS011;9340;48.756;9.226;2023-07-22T01:51:33;5.27;;;4.27;;
18425;SDS011;9340;48.756;9.226;2023-07-22T01:54:02;4.23;;;3.90;;
18425;SDS011;9340;48.756;9.226;2023-07-22T01:56:29;4.90;;;4.50;;
18425;SDS011;9340;48.756;9.226;2023-07-22T01:58:57;4.80;;;4.40;;
18425;SDS011;9340;48.756;9.226;2023-07-22T02:01:23;4.77;;;4.37;;
18425;SDS011;9340;48.756;9.226;2023-07-22T02:03:50;5.33;;;4.50;;
18425;SDS011;9340;48.756;9.226;2023-07-22T02:06:17;5.20;;;4.70;;
18425;SDS011;9340;48.756;9.226;2023-07-22T02:08:44;5.00;;;4.47;;
18425;SDS011;9340;48.756;9.226;2023-07-22T02:11:12;4.33;;;3.97;;
18425;SDS011;9340;48.756;9.226;2023-07-22T02:13:38;3.93;;;3.63;;
18425;SDS011;9340;48.756;9.226;2023-07-22T02:16:07;4.97;;;4.47;;
18425;SDS011;9340;48.756;9.226;2023-07-22T02:18:36;4.40;;;4.00;;
18425;SDS011;9340;48.756;9.226;2023-07-22T02:21:03;4.37;;;3.97;;
18425;SDS011;9340;48.756;9.226;2023-07-22T02:23:30;6.23;;;4.23;;
18425;SDS011;9340;48.756;9.226;2023-07-22T02:25:56;4.70;;;4.30;;
18425;SDS011;9340;48.756;9.226;2023-07-22T02:28:25;4.43;;;4.13;;
18425;SDS011;9340;48.756;9.226;2023-07-22T02:30:52;5.83;;;5.30;;
18425;SDS011;9340;48.756;9.226;2023-07-22T02:33:20;4.13;;;3.70;;
18425;SDS011;9340;48.756;9.226;2023-07-22T02:35:47;4.70;;;4.10;;
18425;SDS011;9340;48.756;9.226;2023-07-22T02:38:14;6.27;;;4.73;;
18425;SDS011;9340;48.756;9.226;2023-07-22T02:40:41;5.27;;;4.77;;
18425;SDS011;9340;48.756;9.226;2023-07-22T02:43:08;5.23;;;4.03;;
18425;SDS011;9340;48.756;9.226;2023-07-22T02:45:36;4.80;;;4.40;;
18425;SDS011;9340;48.756;9.226;2023-07-22T02:48:03;5.20;;;4.80;;
18425;SDS011;9340;48.756;9.226;2023-07-22T02:50:31;4.57;;;4.07;;
18425;SDS011;9340;48.756;9.226;2023-07-22T02:52:58;4.60;;;4.20;;
18425;SDS011;9340;48.756;9.226;2023-07-22T02:55:25;4.83;;;4.33;;
18425;SDS011;9340;48.756;9.226;2023-07-22T02:57:52;5.20;;;4.70;;
18425;SDS011;9340;48.756;9.226;2023-07-22T03:00:19;5.37;;;4.87;;
18425;SDS011;9340;48.756;9.226;2023-07-22T03:02:48;4.80;;;4.40;;
18425;SDS011;9340;48.756;9.226;2023-07-22T03:05:15;4.17;;;3.77;;
18425;SDS011;9340;48.756;9.226;2023-07-22T03:07:43;5.23;;;4.73;;
18425;SDS011;9340;48.756;9.226;2023-07-22T03:10:10;5.17;;;4.17;;
18425;SDS011;9340;48.756;9.226;2023-07-22T03:12:37;5.60;;;4.93;;
18425;SDS011;9340;48.756;9.226;2023-07-22T03:15:05;5.20;;;4.80;;
18425;SDS011;9340;48.756;9.226;2023-07-22T03:17:33;6.87;;;4.63;;
18425;SDS011;9340;48.756;9.226;2023-07-22T03:20:00;5.40;;;4.63;;
18425;SDS011;9340;48.756;9.226;2023-07-22T03:22:27;4.70;;;4.30;;
18425;SDS011;9340;48.756;9.226;2023-07-22T03:24:55;4.60;;;4.20;;
18425;SDS011;9340;48.756;9.226;2023-07-22T03:27:22;4.30;;;3.90;;
18425;SDS011;9340;48.756;9.226;2023-07-22T03:29:48;4.73;;;4.33;;
18425;SDS011;9340;48.756;9.226;2023-07-22T03:32:15;5.13;;;4.63;;
18425;SDS011;9340;48.756;9.226;2023-07-22T03:34:42;4.80;;;4.23;;
18425;SDS011;9340;48.756;9.226;2023-07-22T03:37:09;6.37;;;4.60;;
18425;SDS011;9340;48.756;9.226;2023-07-22T03:39:36;4.33;;;4.00;;
18425;SDS011;9340;48.756;9.226;2023-07-22T03:42:04;4.17;;;3.77;;
18425;SDS011;9340;48.756;9.226;2023-07-22T03:44:31;5.20;;;4.80;;
18425;SDS011;9340;48.756;9.226;2023-07-22T03:46:59;6.67;;;5.40;;
18425;SDS011;9340;48.756;9.226;2023-07-22T03:49:26;4.27;;;3.97;;
18425;SDS011;9340;48.756;9.226;2023-07-22T03:51:52;4.40;;;4.03;;
18425;SDS011;9340;48.756;9.226;2023-07-22T03:54:19;5.07;;;4.67;;
18425;SDS011;9340;48.756;9.226;2023-07-22T03:56:46;5.37;;;4.87;;
18425;SDS011;9340;48.756;9.226;2023-07-22T03:59:14;5.53;;;5.03;;
18425;SDS011;9340;48.756;9.226;2023-07-22T04:01:40;5.70;;;5.20;;
18425;SDS011;9340;48.756;9.226;2023-07-22T04:04:08;6.73;;;6.07;;
18425;SDS011;9340;48.756;9.226;2023-07-22T04:06:34;4.50;;;4.10;;
18425;SDS011;9340;48.756;9.226;2023-07-22T04:09:01;4.77;;;4.20;;
18425;SDS011;9340;48.756;9.226;2023-07-22T04:11:28;5.03;;;3.93;;
18425;SDS011;9340;48.756;9.226;2023-07-22T04:13:54;5.30;;;4.07;;
18425;SDS011;9340;48.756;9.226;2023-07-22T04:16:22;5.13;;;4.73;;
18425;SDS011;9340;48.756;9.226;2023-07-22T04:18:49;5.23;;;4.73;;
18425;SDS011;9340;48.756;9.226;2023-07-22T04:21:16;7.33;;;5.37;;
18425;SDS011;9340;48.756;9.226;2023-07-22T04:23:42;6.40;;;4.17;;
18425;SDS011;9340;48.756;9.226;2023-07-22T04:26:10;5.50;;;5.00;;
18425;SDS011;9340;48.756;9.226;2023-07-22T04:28:36;5.43;;;4.90;;
18425;SDS011;9340;48.756;9.226;2023-07-22T04:31:03;5.50;;;5.03;;
18425;SDS011;9340;48.756;9.226;2023-07-22T04:33:32;5.20;;;4.80;;
18425;SDS011;9340;48.756;9.226;2023-07-22T04:35:59;4.30;;;4.00;;
18425;SDS011;9340;48.756;9.226;2023-07-22T04:38:26;5.10;;;4.67;;
18425;SDS011;9340;48.756;9.226;2023-07-22T04:40:53;5.57;;;5.07;;
18425;SDS011;9340;48.756;9.226;2023-07-22T04:43:19;5.67;;;5.03;;
18425;SDS011;9340;48.756;9.226;2023-07-22T04:45:46;5.40;;;5.00;;
18425;SDS011;9340;48.756;9.226;2023-07-22T04:48:14;5.60;;;5.10;;
18425;SDS011;9340;48.756;9.226;2023-07-22T04:50:42;5.83;;;5.33;;
18425;SDS011;9340;48.756;9.226;2023-07-22T04:53:10;4.90;;;4.37;;
18425;SDS011;9340;48.756;9.226;2023-07-22T04:55:38;5.17;;;4.67;;
18425;SDS011;9340;48.756;9.226;2023-07-22T04:58:04;5.30;;;4.80;;
18425;SDS011;9340;48.756;9.226;2023-07-22T05:00:31;4.83;;;4.43;;
18425;SDS011;9340;48.756;9.226;2023-07-22T05:02:58;4.63;;;4.03;;
18425;SDS011;9340;48.756;9.226;2023-07-22T05:05:25;6.10;;;4.50;;
18425;SDS011;9340;48.756;9.226;2023-07-22T05:07:53;6.37;;;5.77;;
18425;SDS011;9340;48.756;9.226;2023-07-22T05:10:20;7.17;;;6.47;;
18425;SDS011;9340;48.756;9.226;2023-07-22T05:12:47;7.40;;;6.67;;
18425;SDS011;9340;48.756;9.226;2023-07-22T05:15:14;7.00;;;6.40;;
18425;SDS011;9340;48.756;9.226;2023-07-22T05:17:41;5.90;;;5.33;;
18425;SDS011;9340;48.756;9.226;2023-07-22T05:20:08;5.20;;;4.70;;
18425;SDS011;9340;48.756;9.226;2023-07-22T05:22:36;5.67;;;5.10;;
18425;SDS011;9340;48.756;9.226;2023-07-22T05:25:05;5.00;;;4.60;;
18425;SDS011;9340;48.756;9.226;2023-07-22T05:27:32;4.57;;;4.17;;
18425;SDS011;9340;48.756;9.226;2023-07-22T05:29:59;5.43;;;4.90;;
18425;SDS011;9340;48.756;9.226;2023-07-22T05:32:27;5.03;;;4.67;;
18425;SDS011;9340;48.756;9.226;2023-07-22T05:34:54;5.10;;;4.70;;
18425;SDS011;9340;48.756;9.226;2023-07-22T05:37:21;4.63;;;4.23;;
18425;SDS011;9340;48.756;9.226;2023-07-22T05:39:48;4.47;;;4.17;;
18425;SDS011;9340;48.756;9.226;2023-07-22T05:42:16;4.60;;;4.20;;
18425;SDS011;9340;48.756;9.226;2023-07-22T05:44:42;4.10;;;3.80;;
18425;SDS011;9340;48.756;9.226;2023-07-22T05:47:09;4.37;;;4.00;;
18425;SDS011;9340;48.756;9.226;2023-07-22T05:49:36;6.73;;;3.97;;
18425;SDS011;9340;48.756;9.226;2023-07-22T05:52:03;4.23;;;3.83;;
18425;SDS011;9340;48.756;9.226;2023-07-22T05:54:30;3.95;;;3.60;;
18425;SDS011;9340;48.756;9.226;2023-07-22T05:56:56;7.10;;;4.00;;
18425;SDS011;9340;48.756;9.226;2023-07-22T05:59:24;4.30;;;3.58;;
18425;SDS011;9340;48.756;9.226;2023-07-22T06:01:51;4.05;;;3.67;;
18425;SDS011;9340;48.756;9.226;2023-07-22T06:04:18;4.07;;;3.67;;
18425;SDS011;9340;48.756;9.226;2023-07-22T06:06:44;4.03;;;3.65;;
18425;SDS011;9340;48.756;9.226;2023-07-22T06:09:11;3.90;;;3.50;;
18425;SDS011;9340;48.756;9.226;2023-07-22T06:11:38;3.95;;;3.55;;
18425;SDS011;9340;48.756;9.226;2023-07-22T06:14:04;4.30;;;3.40;;
18425;SDS011;9340;48.756;9.226;2023-07-22T06:16:33;3.88;;;3.47;;
18425;SDS011;9340;48.756;9.226;2023-07-22T06:18:59;4.50;;;4.10;;
18425;SDS011;9340;48.756;9.226;2023-07-22T06:21:26;4.38;;;3.42;;
18425;SDS011;9340;48.756;9.226;2023-07-22T06:23:53;4.78;;;3.65;;
18425;SDS011;9340;48.756;9.226;2023-07-22T06:26:19;4.30;;;3.88;;
18425;SDS011;9340;48.756;9.226;2023-07-22T06:28:46;3.42;;;2.95;;
18425;SDS011;9340;48.756;9.226;2023-07-22T06:31:13;3.40;;;3.17;;
18425;SDS011;9340;48.756;9.226;2023-07-22T06:33:42;4.38;;;3.35;;
18425;SDS011;9340;48.756;9.226;2023-07-22T06:36:09;3.08;;;2.78;;
18425;SDS011;9340;48.756;9.226;2023-07-22T06:38:35;3.42;;;3.13;;
18425;SDS011;9340;48.756;9.226;2023-07-22T06:41:02;3.58;;;3.28;;
18425;SDS011;9340;48.756;9.226;2023-07-22T06:43:29;4.80;;;3.00;;
18425;SDS011;9340;48.756;9.226;2023-07-22T06:45:55;3.65;;;3.30;;
18425;SDS011;9340;48.756;9.226;2023-07-22T06:48:22;3.72;;;3.03;;
18425;SDS011;9340;48.756;9.226;2023-07-22T06:50:50;3.88;;;3.50;;
18425;SDS011;9340;48.756;9.226;2023-07-22T06:53:17;3.90;;;3.60;;
18425;SDS011;9340;48.756;9.226;2023-07-22T06:55:49;4.72;;;3.38;;
18425;SDS011;9340;48.756;9.226;2023-07-22T06:58:16;3.88;;;3.55;;
18425;SDS011;9340;48.756;9.226;2023-07-22T07:00:43;4.00;;;3.60;;
18425;SDS011;9340;48.756;9.226;2023-07-22T07:03:09;4.88;;;3.38;;
18425;SDS011;9340;48.756;9.226;2023-07-22T07:05:36;3.58;;;3.28;;
18425;SDS011;9340;48.756;9.226;2023-07-22T07:08:07;5.53;;;3.30;;
18425;SDS011;9340;48.756;9.226;2023-07-22T07:10:37;3.75;;;3.40;;
18425;SDS011;9340;48.756;9.226;2023-07-22T07:13:04;6.20;;;3.63;;
18425;SDS011;9340;48.756;9.226;2023-07-22T07:15:31;4.88;;;3.67;;
18425;SDS011;9340;48.756;9.226;2023-07-22T07:17:58;4.18;;;3.78;;
18425;SDS011;9340;48.756;9.226;2023-07-22T07:20:24;7.60;;;4.15;;
18425;SDS011;9340;48.756;9.226;2023-07-22T07:22:51;5.32;;;3.95;;
18425;SDS011;9340;48.756;9.226;2023-07-22T07:25:19;4.05;;;3.53;;
18425;SDS011;9340;48.756;9.226;2023-07-22T07:27:46;6.00;;;4.30;;
18425;SDS011;9340;48.756;9.226;2023-07-22T07:30:13;3.47;;;3.17;;
18425;SDS011;9340;48.756;9.226;2023-07-22T07:32:39;3.85;;;3.55;;
18425;SDS011;9340;48.756;9.226;2023-07-22T07:35:06;3.80;;;3.50;;
18425;SDS011;9340;48.756;9.226;2023-07-22T07:37:34;6.15;;;3.70;;
18425;SDS011;9340;48.756;9.226;2023-07-22T07:40:00;3.45;;;3.15;;
18425;SDS011;9340;48.756;9.226;2023-07-22T07:42:29;5.25;;;3.45;;
18425;SDS011;9340;48.756;9.226;2023-07-22T07:44:56;5.47;;;3.50;;
18425;SDS011;9340;48.756;9.226;2023-07-22T07:47:23;3.50;;;3.22;;
18425;SDS011;9340;48.756;9.226;2023-07-22T07:49:49;3.70;;;3.40;;
18425;SDS011;9340;48.756;9.226;2023-07-22T07:52:16;5.18;;;3.00;;
18425;SDS011;9340;48.756;9.226;2023-07-22T07:54:43;3.10;;;2.80;;
18425;SDS011;9340;48.756;9.226;2023-07-22T07:57:09;3.25;;;3.03;;
18425;SDS011;9340;48.756;9.226;2023-07-22T07:59:37;3.45;;;3.15;;
18425;SDS011;9340;48.756;9.226;2023-07-22T08:02:04;3.05;;;2.78;;
18425;SDS011;9340;48.756;9.226;2023-07-22T08:04:34;3.70;;;2.63;;
18425;SDS011;9340;48.756;9.226;2023-07-22T08:07:01;4.78;;;2.80;;
18425;SDS011;9340;48.756;9.226;2023-07-22T08:09:29;2.85;;;2.30;;
18425;SDS011;9340;48.756;9.226;2023-07-22T08:11:56;2.67;;;2.30;;
18425;SDS011;9340;48.756;9.226;2023-07-22T08:14:23;2.45;;;2.25;;
18425;SDS011;9340;48.756;9.226;2023-07-22T08:16:51;2.50;;;2.05;;
18425;SDS011;9340;48.756;9.226;2023-07-22T08:19:18;2.35;;;2.15;;
18425;SDS011;9340;48.756;9.226;2023-07-22T08:21:45;2.90;;;2.30;;
18425;SDS011;9340;48.756;9.226;2023-07-22T08:24:11;2.88;;;2.42;;
18425;SDS011;9340;48.756;9.226;2023-07-22T08:26:38;2.55;;;2.13;;
18425;SDS011;9340;48.756;9.226;2023-07-22T08:29:05;2.50;;;2.30;;
18425;SDS011;9340;48.756;9.226;2023-07-22T08:31:31;2.40;;;2.20;;
18425;SDS011;9340;48.756;9.226;2023-07-22T08:33:59;2.25;;;2.05;;
18425;SDS011;9340;48.756;9.226;2023-07-22T08:36:26;2.50;;;2.30;;
18425;SDS011;9340;48.756;9.226;2023-07-22T08:38:53;2.80;;;2.20;;
18425;SDS011;9340;48.756;9.226;2023-07-22T08:41:19;2.50;;;2.30;;
18425;SDS011;9340;48.756;9.226;2023-07-22T08:43:47;2.13;;;1.92;;
18425;SDS011;9340;48.756;9.226;2023-07-22T08:46:16;4.20;;;2.13;;
18425;SDS011;9340;48.756;9.226;2023-07-22T08:48:46;3.13;;;2.28;;
18425;SDS011;9340;48.756;9.226;2023-07-22T08:51:16;3.08;;;2.10;;
18425;SDS011;9340;48.756;9.226;2023-07-22T08:53:44;4.13;;;2.13;;
18425;SDS011;9340;48.756;9.226;2023-07-22T08:56:11;4.28;;;2.40;;
18425;SDS011;9340;48.756;9.226;2023-07-22T08:58:38;3.47;;;2.38;;
18425;SDS011;9340;48.756;9.226;2023-07-22T09:01:05;2.78;;;2.42;;
18425;SDS011;9340;48.756;9.226;2023-07-22T09:03:32;2.40;;;2.20;;
18425;SDS011;9340;48.756;9.226;2023-07-22T09:05:59;3.53;;;2.28;;
18425;SDS011;9340;48.756;9.226;2023-07-22T09:08:28;3.65;;;2.40;;
18425;SDS011;9340;48.756;9.226;2023-07-22T09:10:55;2.38;;;2.15;;
18425;SDS011;9340;48.756;9.226;2023-07-22T09:13:22;2.88;;;2.53;;
18425;SDS011;9340;48.756;9.226;2023-07-22T09:15:50;2.60;;;2.40;;
18425;SDS011;9340;48.756;9.226;2023-07-22T09:18:17;4.07;;;2.78;;
18425;SDS011;9340;48.756;9.226;2023-07-22T09:20:44;3.10;;;2.20;;
18425;SDS011;9340;48.756;9.226;2023-07-22T09:23:11;3.35;;;1.90;;
18425;SDS011;9340;48.756;9.226;2023-07-22T09:25:40;4.03;;;2.30;;
18425;SDS011;9340;48.756;9.226;2023-07-22T09:28:08;2.30;;;1.90;;
18425;SDS011;9340;48.756;9.226;2023-07-22T09:30:35;3.97;;;2.30;;
18425;SDS011;9340;48.756;9.226;2023-07-22T09:33:05;2.42;;;2.20;;
18425;SDS011;9340;48.756;9.226;2023-07-22T09:35:43;2.40;;;2.20;;
18425;SDS011;9340;48.756;9.226;2023-07-22T09:38:11;3.35;;;2.00;;
18425;SDS011;9340;48.756;9.226;2023-07-22T09:40:40;2.95;;;2.00;;
18425;SDS011;9340;48.756;9.226;2023-07-22T09:43:09;2.60;;;2.38;;
18425;SDS011;9340;48.756;9.226;2023-07-22T09:45:37;2.40;;;2.20;;
18425;SDS011;9340;48.756;9.226;2023-07-22T09:48:04;2.50;;;2.22;;
18425;SDS011;9340;48.756;9.226;2023-07-22T09:50:31;3.67;;;2.03;;
18425;SDS011;9340;48.756;9.226;2023-07-22T09:52:58;2.38;;;2.00;;
18425;SDS011;9340;48.756;9.226;2023-07-22T09:55:27;2.28;;;2.05;;
18425;SDS011;9340;48.756;9.226;2023-07-22T09:57:56;2.55;;;2.08;;
18425;SDS011;9340;48.756;9.226;2023-07-22T10:00:23;3.35;;;2.05;;
18425;SDS011;9340;48.756;9.226;2023-07-22T10:02:52;3.90;;;2.00;;
18425;SDS011;9340;48.756;9.226;2023-07-22T10:05:21;2.13;;;1.92;;
18425;SDS011;9340;48.756;9.226;2023-07-22T10:07:50;4.20;;;2.25;;
18425;SDS011;9340;48.756;9.226;2023-07-22T10:10:18;3.42;;;2.28;;
18425;SDS011;9340;48.756;9.226;2023-07-22T10:12:46;4.85;;;2.38;;
18425;SDS011;9340;48.756;9.226;2023-07-22T10:15:15;3.20;;;2.08;;
18425;SDS011;9340;48.756;9.226;2023-07-22T10:17:43;6.30;;;2.92;;
18425;SDS011;9340;48.756;9.226;2023-07-22T10:20:12;2.35;;;1.98;;
18425;SDS011;9340;48.756;9.226;2023-07-22T10:22:41;2.63;;;2.25;;
18425;SDS011;9340;48.756;9.226;2023-07-22T10:25:09;2.80;;;2.53;;
18425;SDS011;9340;48.756;9.226;2023-07-22T10:27:37;2.10;;;1.90;;
18425;SDS011;9340;48.756;9.226;2023-07-22T10:30:06;2.75;;;1.95;;
18425;SDS011;9340;48.756;9.226;2023-07-22T10:32:36;2.30;;;2.10;;
18425;SDS011;9340;48.756;9.226;2023-07-22T10:35:07;2.58;;;1.90;;
18425;SDS011;9340;48.756;9.226;2023-07-22T10:37:36;2.30;;;2.10;;
18425;SDS011;9340;48.756;9.226;2023-07-22T10:40:17;3.20;;;1.90;;
18425;SDS011;9340;48.756;9.226;2023-07-22T10:42:51;1.85;;;1.75;;
18425;SDS011;9340;48.756;9.226;2023-07-22T10:45:24;3.45;;;2.00;;
18425;SDS011;9340;48.756;9.226;2023-07-22T10:48:01;2.92;;;1.90;;
18425;SDS011;9340;48.756;9.226;2023-07-22T10:50:40;1.92;;;1.80;;
18425;SDS011;9340;48.756;9.226;2023-07-22T10:53:09;2.00;;;1.88;;
18425;SDS011;9340;48.756;9.226;2023-07-22T11:01:24;2.60;;;2.20;;
18425;SDS011;9340;48.756;9.226;2023-07-22T11:06:58;2.05;;;1.90;;
18425;SDS011;9340;48.756;9.226;2023-07-22T11:09:35;2.45;;;2.25;;
18425;SDS011;9340;48.756;9.226;2023-07-22T11:12:04;2.58;;;2.25;;
18425;SDS011;9340;48.756;9.226;2023-07-22T11:14:32;3.42;;;2.28;;
18425;SDS011;9340;48.756;9.226;2023-07-22T11:17:00;2.60;;;2.40;;
18425;SDS011;9340;48.756;9.226;2023-07-22T11:19:30;2.72;;;2.53;;
18425;SDS011;9340;48.756;9.226;2023-07-22T11:21:58;2.47;;;2.28;;
18425;SDS011;9340;48.756;9.226;2023-07-22T11:24:25;2.15;;;1.92;;
18425;SDS011;9340;48.756;9.226;2023-07-22T11:26:52;2.72;;;2.38;;
18425;SDS011;9340;48.756;9.226;2023-07-22T11:29:19;2.25;;;2.08;;
18425;SDS011;9340;48.756;9.226;2023-07-22T11:31:47;2.63;;;2.42;;
18425;SDS011;9340;48.756;9.226;2023-07-22T11:34:15;2.38;;;2.17;;
18425;SDS011;9340;48.756;9.226;2023-07-22T11:36:44;2.20;;;2.00;;
18425;SDS011;9340;48.756;9.226;2023-07-22T11:39:11;2.55;;;2.30;;
18425;SDS011;9340;48.756;9.226;2023-07-22T11:41:39;3.45;;;2.72;;
18425;SDS011;9340;48.756;9.226;2023-07-22T11:44:07;3.25;;;2.13;;
18425;SDS011;9340;48.756;9.226;2023-07-22T11:46:46;2.40;;;2.20;;
18425;SDS011;9340;48.756;9.226;2023-07-22T11:49:13;3.78;;;2.20;;
18425;SDS011;9340;48.756;9.226;2023-07-22T11:51:50;2.38;;;2.17;;
18425;SDS011;9340;48.756;9.226;2023-07-22T11:54:17;2.92;;;2.53;;
18425;SDS011;9340;48.756;9.226;2023-07-22T11:56:46;2.67;;;2.47;;
18425;SDS011;9340;48.756;9.226;2023-07-22T11:59:13;2.17;;;2.08;;
18425;SDS011;9340;48.756;9.226;2023-07-22T12:01:42;2.50;;;2.30;;
18425;SDS011;9340;48.756;9.226;2023-07-22T12:04:10;3.30;;;2.97;;
18425;SDS011;9340;48.756;9.226;2023-07-22T12:06:37;2.50;;;2.30;;
18425;SDS011;9340;48.756;9.226;2023-07-22T12:09:06;2.55;;;2.35;;
18425;SDS011;9340;48.756;9.226;2023-07-22T12:11:34;2.25;;;2.05;;
18425;SDS011;9340;48.756;9.226;2023-07-22T12:14:04;2.50;;;2.30;;
18425;SDS011;9340;48.756;9.226;2023-07-22T12:16:35;2.60;;;2.40;;
18425;SDS011;9340;48.756;9.226;2023-07-22T12:19:03;3.15;;;2.33;;
18425;SDS011;9340;48.756;9.226;2023-07-22T12:21:30;2.83;;;2.58;;
18425;SDS011;9340;48.756;9.226;2023-07-22T12:23:57;2.92;;;2.65;;
18425;SDS011;9340;48.756;9.226;2023-07-22T12:26:25;2.58;;;2.38;;
18425;SDS011;9340;48.756;9.226;2023-07-22T12:28:52;2.60;;;2.40;;
18425;SDS011;9340;48.756;9.226;2023-07-22T12:31:19;3.00;;;2.30;;
18425;SDS011;9340;48.756;9.226;2023-07-22T12:33:45;2.95;;;2.03;;
18425;SDS011;9340;48.756;9.226;2023-07-22T12:36:12;3.53;;;2.10;;
18425;SDS011;9340;48.756;9.226;2023-07-22T12:38:39;3.42;;;2.22;;
18425;SDS011;9340;48.756;9.226;2023-07-22T12:41:05;2.67;;;2.47;;
18425;SDS011;9340;48.756;9.226;2023-07-22T12:43:33;2.70;;;2.50;;
18425;SDS011;9340;48.756;9.226;2023-07-22T12:46:00;2.30;;;2.10;;
18425;SDS011;9340;48.756;9.226;2023-07-22T12:48:27;3.88;;;2.50;;
18425;SDS011;9340;48.756;9.226;2023-07-22T12:50:53;2.50;;;2.30;;
18425;SDS011;9340;48.756;9.226;2023-07-22T12:53:21;2.22;;;2.03;;
18425;SDS011;9340;48.756;9.226;2023-07-22T12:55:47;2.45;;;2.25;;
18425;SDS011;9340;48.756;9.226;2023-07-22T12:58:14;3.03;;;2.78;;
18425;SDS011;9340;48.756;9.226;2023-07-22T13:00:42;2.78;;;2.58;;
18425;SDS011;9340;48.756;9.226;2023-07-22T13:03:09;3.97;;;3.05;;
18425;SDS011;9340;48.756;9.226;2023-07-22T13:05:35;2.80;;;2.60;;
18425;SDS011;9340;48.756;9.226;2023-07-22T13:08:02;3.17;;;2.83;;
18425;SDS011;9340;48.756;9.226;2023-07-22T13:10:29;3.25;;;2.95;;
18425;SDS011;9340;48.756;9.226;2023-07-22T13:12:56;3.08;;;2.78;;
18425;SDS011;9340;48.756;9.226;2023-07-22T13:15:23;2.83;;;2.53;;
18425;SDS011;9340;48.756;9.226;2023-07-22T13:17:51;3.03;;;2.72;;
18425;SDS011;9340;48.756;9.226;2023-07-22T13:20:18;3.00;;;2.80;;
18425;SDS011;9340;48.756;9.226;2023-07-22T13:22:44;3.40;;;3.10;;
18425;SDS011;9340;48.756;9.226;2023-07-22T13:25:11;2.60;;;2.40;;
18425;SDS011;9340;48.756;9.226;2023-07-22T13:27:38;3.75;;;3.03;;
18425;SDS011;9340;48.756;9.226;2023-07-22T13:30:06;3.22;;;2.92;;
18425;SDS011;9340;48.756;9.226;2023-07-22T13:32:33;3.55;;;3.25;;
18425;SDS011;9340;48.756;9.226;2023-07-22T13:35:01;3.45;;;3.15;;
18425;SDS011;9340;48.756;9.226;2023-07-22T13:37:29;3.30;;;3.05;;
18425;SDS011;9340;48.756;9.226;2023-07-22T13:39:55;3.67;;;2.90;;
18425;SDS011;9340;48.756;9.226;2023-07-22T13:42:22;3.08;;;2.83;;
18425;SDS011;9340;48.756;9.226;2023-07-22T13:44:49;3.67;;;2.90;;
18425;SDS011;9340;48.756;9.226;2023-07-22T13:47:16;5.00;;;3.45;;
18425;SDS011;9340;48.756;9.226;2023-07-22T13:49:42;3.53;;;3.22;;
18425;SDS011;9340;48.756;9.226;2023-07-22T13:52:10;3.65;;;3.28;;
18425;SDS011;9340;48.756;9.226;2023-07-22T13:54:37;3.35;;;3.05;;
18425;SDS011;9340;48.756;9.226;2023-07-22T13:57:04;3.35;;;3.05;;
18425;SDS011;9340;48.756;9.226;2023-07-22T13:59:31;3.33;;;2.90;;
18425;SDS011;9340;48.756;9.226;2023-07-22T14:01:58;3.58;;;3.20;;
18425;SDS011;9340;48.756;9.226;2023-07-22T14:04:25;3.95;;;3.08;;
18425;SDS011;9340;48.756;9.226;2023-07-22T14:06:51;3.35;;;2.85;;
18425;SDS011;9340;48.756;9.226;2023-07-22T14:09:19;4.53;;;3.33;;
18425;SDS011;9340;48.756;9.226;2023-07-22T14:11:46;3.38;;;3.08;;
18425;SDS011;9340;48.756;9.226;2023-07-22T14:14:13;3.35;;;3.10;;
18425;SDS011;9340;48.756;9.226;2023-07-22T14:16:39;3.70;;;3.40;;
18425;SDS011;9340;48.756;9.226;2023-07-22T14:19:06;3.35;;;3.05;;
18425;SDS011;9340;48.756;9.226;2023-07-22T14:21:33;3.40;;;3.20;;
18425;SDS011;9340;48.756;9.226;2023-07-22T14:23:59;3.03;;;2.83;;
18425;SDS011;9340;48.756;9.226;2023-07-22T14:26:27;3.47;;;2.70;;
18425;SDS011;9340;48.756;9.226;2023-07-22T14:28:54;3.35;;;3.05;;
18425;SDS011;9340;48.756;9.226;2023-07-22T14:31:21;3.30;;;3.00;;
18425;SDS011;9340;48.756;9.226;2023-07-22T14:33:47;3.78;;;3.40;;
18425;SDS011;9340;48.756;9.226;2023-07-22T14:36:15;3.83;;;3.38;;
18425;SDS011;9340;48.756;9.226;2023-07-22T14:38:43;3.72;;;3.38;;
18425;SDS011;9340;48.756;9.226;2023-07-22T14:41:10;4.97;;;3.55;;
18425;SDS011;9340;48.756;9.226;2023-07-22T14:43:38;3.40;;;3.10;;
18425;SDS011;9340;48.756;9.226;2023-07-22T14:46:05;4.65;;;3.25;;
18425;SDS011;9340;48.756;9.226;2023-07-22T14:48:32;4.15;;;3.75;;
18425;SDS011;9340;48.756;9.226;2023-07-22T14:50:58;5.07;;;3.10;;
18425;SDS011;9340;48.756;9.226;2023-07-22T14:53:25;3.75;;;3.35;;
18425;SDS011;9340;48.756;9.226;2023-07-22T14:55:52;4.07;;;3.50;;
18425;SDS011;9340;48.756;9.226;2023-07-22T14:58:19;3.63;;;3.33;;
18425;SDS011;9340;48.756;9.226;2023-07-22T15:00:47;4.43;;;3.90;;
18425;SDS011;9340;48.756;9.226;2023-07-22T15:03:15;4.97;;;3.33;;
18425;SDS011;9340;48.756;9.226;2023-07-22T15:05:41;3.78;;;3.47;;
18425;SDS011;9340;48.756;9.226;2023-07-22T15:08:08;3.28;;;2.97;;
18425;SDS011;9340;48.756;9.226;2023-07-22T15:10:35;3.88;;;3.58;;